createdAt,value
2023-02-21T00:00:48.997Z,18.27
2023-02-21T00:03:34.206Z,20.83
2023-02-21T00:06:20.337Z,20.67
2023-02-21T00:09:05.568Z,16.63
2023-02-21T00:11:50.799Z,26.43
2023-02-21T00:14:35.924Z,21.13
2023-02-21T00:17:21.089Z,24.03
2023-02-21T00:20:06.197Z,25.20
2023-02-21T00:22:51.451Z,30.40
2023-02-21T00:25:36.806Z,20.93
2023-02-21T00:28:21.961Z,19.30
2023-02-21T00:31:07.085Z,19.93
2023-02-21T00:33:56.410Z,21.83
2023-02-21T00:36:41.745Z,23.87
2023-02-21T00:39:27.118Z,22.27
2023-02-21T00:42:12.227Z,27.97
2023-02-21T00:44:57.446Z,28.60
2023-02-21T00:47:42.689Z,24.43
2023-02-21T00:50:28.264Z,23.97
2023-02-21T00:53:13.788Z,28.93
2023-02-21T00:55:59.298Z,31.00
2023-02-21T00:58:44.488Z,31.77
2023-02-21T01:01:29.528Z,41.40
2023-02-21T01:04:16.189Z,37.50
2023-02-21T01:07:01.463Z,34.00
2023-02-21T01:09:46.455Z,36.20
2023-02-21T01:12:32.155Z,37.73
2023-02-21T01:15:17.485Z,31.80
2023-02-21T01:18:02.871Z,33.27
2023-02-21T01:20:48.092Z,38.53
2023-02-21T01:23:33.270Z,36.43
2023-02-21T01:26:18.575Z,31.57
2023-02-21T01:29:05.942Z,39.30
2023-02-21T01:31:51.018Z,29.83
2023-02-21T01:34:36.420Z,37.43
2023-02-21T01:37:21.685Z,31.37
2023-02-21T01:40:08.101Z,35.60
2023-02-21T01:42:53.238Z,27.43
2023-02-21T01:45:41.571Z,29.90
2023-02-21T01:48:29.899Z,29.03
2023-02-21T01:51:16.713Z,31.30
2023-02-21T01:54:02.007Z,32.17
2023-02-21T01:56:48.225Z,32.03
2023-02-21T01:59:33.562Z,32.53
2023-02-21T02:02:28.616Z,29.97
2023-02-21T02:05:14.429Z,30.17
2023-02-21T02:08:00.401Z,31.13
2023-02-21T02:10:45.666Z,29.17
2023-02-21T02:13:15.343Z,27.20
2023-02-21T02:16:00.033Z,31.90
2023-02-21T02:18:45.956Z,31.70
2023-02-21T02:21:31.872Z,30.30
2023-02-21T02:24:17.094Z,30.43
2023-02-21T02:26:58.972Z,26.90
2023-02-21T02:29:44.143Z,35.93
2023-02-21T02:32:20.236Z,28.17
2023-02-21T02:34:50.577Z,28.30
2023-02-21T02:37:21.425Z,28.33
2023-02-21T02:40:08.717Z,27.20
2023-02-21T02:42:48.869Z,29.07
2023-02-21T02:45:21.163Z,26.47
2023-02-21T02:47:51.842Z,31.90
2023-02-21T02:50:19.159Z,24.43
2023-02-21T02:52:50.359Z,26.93
2023-02-21T02:55:23.792Z,27.13
2023-02-21T02:57:51.126Z,34.07
2023-02-21T03:00:19.216Z,28.03
2023-02-21T03:03:07.441Z,31.33
2023-02-21T03:05:39.329Z,30.33
2023-02-21T03:08:14.300Z,22.20
2023-02-21T03:10:44.824Z,26.97
2023-02-21T03:13:26.970Z,27.40
2023-02-21T03:15:56.564Z,24.43
2023-02-21T03:18:27.474Z,28.23
2023-02-21T03:20:55.995Z,25.40
2023-02-21T03:23:24.640Z,23.53
2023-02-21T03:25:52.052Z,22.93
2023-02-21T03:28:20.098Z,25.37
2023-02-21T03:30:48.910Z,25.97
2023-02-21T03:33:15.328Z,29.40
2023-02-21T03:35:42.544Z,23.53
2023-02-21T03:38:10.120Z,24.30
2023-02-21T03:40:36.892Z,22.80
2023-02-21T03:43:07.540Z,23.67
2023-02-21T03:45:41.839Z,31.90
2023-02-21T03:48:17.651Z,23.97
2023-02-21T03:50:50.228Z,26.40
2023-02-21T03:53:17.961Z,31.90
2023-02-21T03:55:45.279Z,26.10
2023-02-21T03:58:17.984Z,27.47
2023-02-21T04:00:44.571Z,31.20
2023-02-21T04:03:11.543Z,27.50
2023-02-21T04:05:40.888Z,32.30
2023-02-21T04:08:10.148Z,32.67
2023-02-21T04:10:46.842Z,25.57
2023-02-21T04:13:19.921Z,23.77
2023-02-21T04:15:47.559Z,26.83
2023-02-21T04:18:14.040Z,20.50
2023-02-21T04:20:41.497Z,31.93
2023-02-21T04:23:11.412Z,29.43
2023-02-21T04:25:37.815Z,26.33
2023-02-21T04:28:10.964Z,29.20
2023-02-21T04:30:37.620Z,22.30
2023-02-21T04:33:04.792Z,25.23
2023-02-21T04:35:31.763Z,26.20
2023-02-21T04:38:02.540Z,29.00
2023-02-21T04:40:29.170Z,28.50
2023-02-21T04:42:55.908Z,28.37
2023-02-21T04:45:22.379Z,24.20
2023-02-21T04:47:48.784Z,31.17
2023-02-21T04:50:15.210Z,24.60
2023-02-21T04:52:41.779Z,22.73
2023-02-21T04:55:08.873Z,25.83
2023-02-21T04:57:35.310Z,25.57
2023-02-21T05:00:01.806Z,23.53
2023-02-21T05:02:28.388Z,24.80
2023-02-21T05:04:54.822Z,25.83
2023-02-21T05:07:21.251Z,26.57
2023-02-21T05:09:47.674Z,29.17
2023-02-21T05:12:14.112Z,26.03
2023-02-21T05:14:40.934Z,25.83
2023-02-21T05:17:07.503Z,24.63
2023-02-21T05:19:34.282Z,30.73
2023-02-21T05:22:02.002Z,25.83
2023-02-21T05:24:29.305Z,28.03
2023-02-21T05:26:56.221Z,28.90
2023-02-21T05:29:23.011Z,26.20
2023-02-21T05:31:49.432Z,22.10
2023-02-21T05:34:17.326Z,20.50
2023-02-21T05:36:43.841Z,21.23
2023-02-21T05:39:10.427Z,18.77
2023-02-21T05:41:36.900Z,17.40
2023-02-21T05:44:03.626Z,18.93
2023-02-21T05:46:31.388Z,16.10
2023-02-21T05:48:58.514Z,12.73
2023-02-21T05:51:25.120Z,15.37
2023-02-21T05:53:51.573Z,13.33
2023-02-21T05:56:18.210Z,12.40
2023-02-21T05:58:44.680Z,15.70
2023-02-21T06:01:12.997Z,13.10
2023-02-21T06:03:39.707Z,15.00
2023-02-21T06:06:06.183Z,14.33
2023-02-21T06:08:32.638Z,22.20
2023-02-21T06:10:59.034Z,23.63
2023-02-21T06:13:25.662Z,13.90
2023-02-21T06:15:52.098Z,11.97
2023-02-21T06:18:18.847Z,13.27
2023-02-21T06:20:45.714Z,10.97
2023-02-21T06:23:12.089Z,16.13
2023-02-21T06:25:38.970Z,12.03
2023-02-21T06:28:05.350Z,16.43
2023-02-21T06:30:31.805Z,12.50
2023-02-21T06:32:58.225Z,11.57
2023-02-21T06:35:24.708Z,15.57
2023-02-21T06:37:51.117Z,17.50
2023-02-21T06:40:17.570Z,16.73
2023-02-21T06:42:44.009Z,15.20
2023-02-21T06:45:10.450Z,12.80
2023-02-21T06:47:36.824Z,14.20
2023-02-21T06:50:03.378Z,13.27
2023-02-21T06:52:30.941Z,12.73
2023-02-21T06:54:57.321Z,16.67
2023-02-21T06:57:24.368Z,16.47
2023-02-21T06:59:50.814Z,12.77
2023-02-21T07:02:18.558Z,14.13
2023-02-21T07:04:48.417Z,13.70
2023-02-21T07:07:15.338Z,14.53
2023-02-21T07:09:41.988Z,14.20
2023-02-21T07:12:08.851Z,23.37
2023-02-21T07:14:35.372Z,13.80
2023-02-21T07:17:01.817Z,19.40
2023-02-21T07:19:28.240Z,23.53
2023-02-21T07:21:54.742Z,17.60
2023-02-21T07:24:21.155Z,17.70
2023-02-21T07:26:48.248Z,18.10
2023-02-21T07:29:14.926Z,16.70
2023-02-21T07:31:41.498Z,18.60
2023-02-21T07:34:08.628Z,16.17
2023-02-21T07:36:39.673Z,21.60
2023-02-21T07:39:06.432Z,21.13
2023-02-21T07:41:32.967Z,23.03
2023-02-21T07:43:59.714Z,22.53
2023-02-21T07:46:27.065Z,22.10
2023-02-21T07:48:53.647Z,18.23
2023-02-21T07:51:20.865Z,16.37
2023-02-21T07:53:47.273Z,21.37
2023-02-21T07:56:13.786Z,22.10
2023-02-21T07:58:40.175Z,21.90
2023-02-21T08:01:07.160Z,24.90
2023-02-21T08:03:33.553Z,23.60
2023-02-21T08:06:00.237Z,26.27
2023-02-21T08:08:26.675Z,29.60
2023-02-21T08:10:53.076Z,25.37
2023-02-21T08:13:19.459Z,29.97
2023-02-21T08:15:45.856Z,22.00
2023-02-21T08:18:21.089Z,31.57
2023-02-21T08:20:47.636Z,25.30
2023-02-21T08:23:14.256Z,21.93
2023-02-21T08:25:40.861Z,25.53
2023-02-21T08:28:07.370Z,24.97
2023-02-21T08:30:34.226Z,17.77
2023-02-21T08:33:00.646Z,23.63
2023-02-21T08:35:27.606Z,24.13
2023-02-21T08:37:57.288Z,24.87
2023-02-21T08:40:24.037Z,21.57
2023-02-21T08:42:51.337Z,24.60
2023-02-21T08:45:19.129Z,27.33
2023-02-21T08:47:46.530Z,28.77
2023-02-21T08:50:13.724Z,28.30
2023-02-21T08:52:40.167Z,19.80
2023-02-21T08:55:08.062Z,25.17
2023-02-21T08:57:34.950Z,22.87
2023-02-21T09:00:01.519Z,25.30
2023-02-21T09:02:32.707Z,25.17
2023-02-21T09:04:59.590Z,20.20
2023-02-21T09:07:28.552Z,28.87
2023-02-21T09:09:54.940Z,23.53
2023-02-21T09:12:21.342Z,24.43
2023-02-21T09:14:47.739Z,20.93
2023-02-21T09:17:14.574Z,20.77
2023-02-21T09:19:41.180Z,25.37
2023-02-21T09:22:08.551Z,20.53
2023-02-21T09:24:35.302Z,31.73
2023-02-21T09:27:04.727Z,25.90
2023-02-21T09:29:45.412Z,31.30
2023-02-21T09:32:13.405Z,22.90
2023-02-21T09:34:40.048Z,29.60
2023-02-21T09:37:06.561Z,21.57
2023-02-21T09:39:32.924Z,26.03
2023-02-21T09:41:59.693Z,24.97
2023-02-21T09:44:27.811Z,29.30
2023-02-21T09:47:05.443Z,20.80
2023-02-21T09:49:34.169Z,19.80
2023-02-21T09:52:01.209Z,22.30
2023-02-21T09:54:35.537Z,28.90
2023-02-21T09:57:03.467Z,19.87
2023-02-21T09:59:29.990Z,23.77
2023-02-21T10:02:15.917Z,21.60
2023-02-21T10:04:42.582Z,28.83
2023-02-21T10:07:09.019Z,26.60
2023-02-21T10:09:42.016Z,22.23
2023-02-21T10:12:08.385Z,20.17
2023-02-21T10:14:34.953Z,24.50
2023-02-21T10:17:20.390Z,26.37
2023-02-21T10:19:52.395Z,27.93
2023-02-21T10:22:20.811Z,29.00
2023-02-21T10:24:49.190Z,23.23
2023-02-21T10:27:18.054Z,22.33
2023-02-21T10:29:52.416Z,29.60
2023-02-21T10:32:19.039Z,25.83
2023-02-21T10:34:47.405Z,20.57
2023-02-21T10:37:33.701Z,23.53
2023-02-21T10:40:09.397Z,29.37
2023-02-21T10:42:35.790Z,30.97
2023-02-21T10:45:04.259Z,24.57
2023-02-21T10:47:51.238Z,25.30
2023-02-21T10:50:36.205Z,26.57
2023-02-21T10:53:02.785Z,25.20
2023-02-21T10:55:33.081Z,33.87
2023-02-21T10:58:06.655Z,38.70
2023-02-21T11:00:35.457Z,27.90
2023-02-21T11:03:20.186Z,24.77
2023-02-21T11:05:53.762Z,23.97
2023-02-21T11:08:40.560Z,22.60
2023-02-21T11:11:07.709Z,27.17
2023-02-21T11:13:36.095Z,27.43
2023-02-21T11:16:11.781Z,27.33
2023-02-21T11:18:38.222Z,24.97
2023-02-21T11:21:15.794Z,31.13
2023-02-21T11:23:57.844Z,24.83
2023-02-21T11:26:24.453Z,24.37
2023-02-21T11:28:52.083Z,27.03
2023-02-21T11:31:29.398Z,29.30
2023-02-21T11:34:00.220Z,22.70
2023-02-21T11:36:31.227Z,18.97
2023-02-21T11:39:05.620Z,19.63
2023-02-21T11:41:37.099Z,18.90
2023-02-21T11:44:21.891Z,22.87
2023-02-21T11:46:50.317Z,24.27
2023-02-21T11:49:33.297Z,18.90
2023-02-21T11:52:06.401Z,20.50
2023-02-21T11:54:32.907Z,19.27
2023-02-21T11:57:19.981Z,26.53
2023-02-21T11:59:46.378Z,24.60
2023-02-21T12:02:22.760Z,19.43
2023-02-21T12:04:52.234Z,16.10
2023-02-21T12:07:29.259Z,26.90
2023-02-21T12:09:55.678Z,21.93
2023-02-21T12:12:25.219Z,18.70
2023-02-21T12:14:54.444Z,15.47
2023-02-21T12:17:23.615Z,17.33
2023-02-21T12:19:54.983Z,18.53
2023-02-21T12:22:33.543Z,15.53
2023-02-21T12:25:08.995Z,21.93
2023-02-21T12:27:35.526Z,19.23
2023-02-21T12:30:01.890Z,17.90
2023-02-21T12:32:31.495Z,17.10
2023-02-21T12:34:57.894Z,15.53
2023-02-21T12:37:24.747Z,17.30
2023-02-21T12:39:51.179Z,20.00
2023-02-21T12:42:31.517Z,16.23
2023-02-21T12:45:07.184Z,11.63
2023-02-21T12:47:42.923Z,16.77
2023-02-21T12:50:15.598Z,24.73
2023-02-21T12:52:48.158Z,15.57
2023-02-21T12:55:21.303Z,25.40
2023-02-21T12:57:47.686Z,15.57
2023-02-21T13:00:17.489Z,17.00
2023-02-21T13:03:02.771Z,18.47
2023-02-21T13:05:36.261Z,23.07
2023-02-21T13:08:07.485Z,16.60
2023-02-21T13:10:45.984Z,17.87
2023-02-21T13:13:14.898Z,15.17
2023-02-21T13:15:43.352Z,19.17
2023-02-21T13:18:15.073Z,16.07
2023-02-21T13:20:45.111Z,21.13
2023-02-21T13:23:51.562Z,16.77
2023-02-21T13:26:37.288Z,14.93
2023-02-21T13:29:10.610Z,17.90
2023-02-21T13:31:42.279Z,23.63
2023-02-21T13:34:11.462Z,18.17
2023-02-21T13:36:37.822Z,16.50
2023-02-21T13:39:10.009Z,14.50
2023-02-21T13:41:38.996Z,16.73
2023-02-21T13:44:07.915Z,18.83
2023-02-21T13:46:34.499Z,20.83
2023-02-21T13:49:19.455Z,17.33
2023-02-21T13:51:50.045Z,19.20
2023-02-21T13:54:22.211Z,20.47
2023-02-21T13:56:49.110Z,15.63
2023-02-21T13:59:25.561Z,14.80
2023-02-21T14:01:52.379Z,15.33
2023-02-21T14:04:50.628Z,19.47
2023-02-21T14:07:18.490Z,18.60
2023-02-21T14:09:46.244Z,16.90
2023-02-21T14:12:15.819Z,16.77
2023-02-21T14:14:42.781Z,19.47
2023-02-21T14:17:10.762Z,22.17
2023-02-21T14:19:42.689Z,16.53
2023-02-21T14:22:11.568Z,25.53
2023-02-21T14:24:39.564Z,16.50
2023-02-21T14:27:07.632Z,19.40
2023-02-21T14:29:41.421Z,17.63
2023-02-21T14:32:08.047Z,19.87
2023-02-21T14:34:54.342Z,19.30
2023-02-21T14:37:26.950Z,15.83
2023-02-21T14:39:54.978Z,18.60
2023-02-21T14:42:30.438Z,19.77
2023-02-21T14:44:59.793Z,17.67
2023-02-21T14:47:33.953Z,26.13
2023-02-21T14:50:09.406Z,19.47
2023-02-21T14:52:42.080Z,21.80
2023-02-21T14:55:08.455Z,16.97
2023-02-21T14:57:53.802Z,19.80
2023-02-21T15:00:42.122Z,21.93
2023-02-21T15:03:12.619Z,22.53
2023-02-21T15:06:03.646Z,24.73
2023-02-21T15:08:39.094Z,20.83
2023-02-21T15:11:14.971Z,20.40
2023-02-21T15:13:41.920Z,20.10
2023-02-21T15:16:09.285Z,22.10
2023-02-21T15:18:37.039Z,22.67
2023-02-21T15:21:19.939Z,19.27
2023-02-21T15:23:47.712Z,25.07
2023-02-21T15:26:18.327Z,20.73
2023-02-21T15:28:45.561Z,20.17
2023-02-21T15:31:12.846Z,22.63
2023-02-21T15:33:40.505Z,24.33
2023-02-21T15:36:09.108Z,25.10
2023-02-21T15:38:47.490Z,19.87
2023-02-21T15:41:33.457Z,20.73
2023-02-21T15:43:59.893Z,26.87
2023-02-21T15:46:29.783Z,25.37
2023-02-21T15:48:59.352Z,22.87
2023-02-21T15:51:26.220Z,29.77
2023-02-21T15:54:23.838Z,27.13
2023-02-21T15:57:10.878Z,24.93
2023-02-21T15:59:38.106Z,25.47
2023-02-21T16:02:13.380Z,22.57
2023-02-21T16:04:47.302Z,27.03
2023-02-21T16:07:16.249Z,26.60
2023-02-21T16:09:46.037Z,28.10
2023-02-21T16:12:12.426Z,31.83
2023-02-21T16:14:40.883Z,30.80
2023-02-21T16:17:13.612Z,28.57
2023-02-21T16:19:41.022Z,34.33
2023-02-21T16:22:12.981Z,27.57
2023-02-21T16:24:39.450Z,27.17
2023-02-21T16:27:09.664Z,28.73
2023-02-21T16:29:36.113Z,23.67
2023-02-21T16:32:02.908Z,29.60
2023-02-21T16:34:31.173Z,31.77
2023-02-21T16:37:01.430Z,27.70
2023-02-21T16:39:28.403Z,28.83
2023-02-21T16:41:54.783Z,26.00
2023-02-21T16:44:21.169Z,29.37
2023-02-21T16:46:50.357Z,25.60
2023-02-21T16:49:16.749Z,30.97
2023-02-21T16:51:43.768Z,24.63
2023-02-21T16:54:12.727Z,23.50
2023-02-21T16:56:41.240Z,28.33
2023-02-21T16:59:10.114Z,25.83
2023-02-21T17:01:36.631Z,22.17
2023-02-21T17:04:05.668Z,27.37
2023-02-21T17:06:33.506Z,31.57
2023-02-21T17:09:00.169Z,26.33
2023-02-21T17:11:26.664Z,25.70
2023-02-21T17:13:53.041Z,26.60
2023-02-21T17:16:20.018Z,27.17
2023-02-21T17:18:46.568Z,30.83
2023-02-21T17:21:13.101Z,26.40
2023-02-21T17:23:40.782Z,26.90
2023-02-21T17:26:07.405Z,29.83
2023-02-21T17:28:34.519Z,22.40
2023-02-21T17:31:01.179Z,22.77
2023-02-21T17:33:27.704Z,23.90
2023-02-21T17:35:54.212Z,23.13
2023-02-21T17:38:20.617Z,36.33
2023-02-21T17:40:47.106Z,27.27
2023-02-21T17:43:15.131Z,29.73
2023-02-21T17:45:41.597Z,29.87
2023-02-21T17:48:08.208Z,29.17
2023-02-21T17:50:34.607Z,30.50
2023-02-21T17:53:01.787Z,30.10
2023-02-21T17:55:30.050Z,29.53
2023-02-21T17:57:57.476Z,34.73
2023-02-21T18:00:28.157Z,30.20
2023-02-21T18:02:55.377Z,31.33
2023-02-21T18:05:22.218Z,30.20
2023-02-21T18:07:50.349Z,27.77
2023-02-21T18:10:18.256Z,24.20
2023-02-21T18:12:44.719Z,27.23
2023-02-21T18:15:11.428Z,26.13
2023-02-21T18:17:38.295Z,30.33
2023-02-21T18:20:05.046Z,27.93
2023-02-21T18:22:31.431Z,28.50
2023-02-21T18:24:57.973Z,29.80
2023-02-21T18:27:24.700Z,25.37
2023-02-21T18:29:55.785Z,38.27
2023-02-21T18:32:23.037Z,33.70
2023-02-21T18:34:49.474Z,30.10
2023-02-21T18:37:15.929Z,31.27
2023-02-21T18:39:42.478Z,32.03
2023-02-21T18:42:08.851Z,29.37
2023-02-21T18:44:35.250Z,31.27
2023-02-21T18:47:02.387Z,28.70
2023-02-21T18:49:33.858Z,32.53
2023-02-21T18:52:03.680Z,30.30
2023-02-21T18:54:30.078Z,31.03
2023-02-21T18:56:56.533Z,33.23
2023-02-21T18:59:22.912Z,29.97
2023-02-21T19:01:49.871Z,31.17
2023-02-21T19:04:16.592Z,31.50
2023-02-21T19:06:43.270Z,31.10
2023-02-21T19:09:09.721Z,30.60
2023-02-21T19:11:36.148Z,34.70
2023-02-21T19:14:03.703Z,31.30
2023-02-21T19:16:30.204Z,36.23
2023-02-21T19:18:57.349Z,32.70
2023-02-21T19:21:23.898Z,32.43
2023-02-21T19:23:50.548Z,31.87
2023-02-21T19:26:17.345Z,32.07
2023-02-21T19:28:43.838Z,38.70
2023-02-21T19:31:16.681Z,35.67
2023-02-21T19:33:43.809Z,33.57
2023-02-21T19:36:11.117Z,30.80
2023-02-21T19:38:37.568Z,31.37
2023-02-21T19:41:05.207Z,31.50
2023-02-21T19:43:32.592Z,33.40
2023-02-21T19:45:59.459Z,31.60
2023-02-21T19:48:26.369Z,35.10
2023-02-21T19:50:52.887Z,30.73
2023-02-21T19:53:19.342Z,32.80
2023-02-21T19:55:45.765Z,30.97
2023-02-21T19:58:12.263Z,31.93
2023-02-21T20:00:43.075Z,34.40
2023-02-21T20:03:09.811Z,33.37
2023-02-21T20:05:36.684Z,37.80
2023-02-21T20:08:03.183Z,34.87
2023-02-21T20:10:31.075Z,39.97
2023-02-21T20:12:57.545Z,38.93
2023-02-21T20:15:24.637Z,39.63
2023-02-21T20:17:53.309Z,40.40
2023-02-21T20:20:19.722Z,43.13
2023-02-21T20:22:46.239Z,39.73
2023-02-21T20:25:12.918Z,39.90
2023-02-21T20:27:41.608Z,37.53
2023-02-21T20:30:08.379Z,34.67
2023-02-21T20:32:34.787Z,36.97
2023-02-21T20:35:03.316Z,35.73
2023-02-21T20:37:31.279Z,36.23
2023-02-21T20:39:58.617Z,38.93
2023-02-21T20:42:25.432Z,34.17
2023-02-21T20:44:52.232Z,33.50
2023-02-21T20:47:19.547Z,37.00
2023-02-21T20:49:47.339Z,35.23
2023-02-21T20:52:14.430Z,30.27
2023-02-21T20:54:41.560Z,33.70
2023-02-21T20:57:08.506Z,39.23
2023-02-21T20:59:36.188Z,36.97
2023-02-21T21:02:03.525Z,29.87
2023-02-21T21:04:31.418Z,31.10
2023-02-21T21:06:58.844Z,28.50
2023-02-21T21:09:34.133Z,33.20
2023-02-21T21:12:02.091Z,31.87
2023-02-21T21:14:33.112Z,30.67
2023-02-21T21:16:59.996Z,30.90
2023-02-21T21:19:26.991Z,26.40
2023-02-21T21:21:53.705Z,28.70
2023-02-21T21:24:20.537Z,28.77
2023-02-21T21:26:52.855Z,27.83
2023-02-21T21:29:22.755Z,27.43
2023-02-21T21:31:50.483Z,29.30
2023-02-21T21:34:22.821Z,28.47
2023-02-21T21:36:50.234Z,30.70
2023-02-21T21:39:16.828Z,25.60
2023-02-21T21:41:46.481Z,33.00
2023-02-21T21:44:14.023Z,29.03
2023-02-21T21:46:44.207Z,33.37
2023-02-21T21:49:12.425Z,30.50
2023-02-21T21:51:40.704Z,32.90
2023-02-21T21:54:07.257Z,31.20
2023-02-21T21:56:34.242Z,30.87
2023-02-21T21:59:02.710Z,37.10
2023-02-21T22:01:29.924Z,34.03
2023-02-21T22:03:56.338Z,29.30
2023-02-21T22:06:22.750Z,29.07
2023-02-21T22:08:49.126Z,26.73
2023-02-21T22:11:15.968Z,25.10
2023-02-21T22:13:42.534Z,24.37
2023-02-21T22:16:09.737Z,27.60
2023-02-21T22:18:36.211Z,27.23
2023-02-21T22:21:02.580Z,28.60
2023-02-21T22:23:30.526Z,27.27
2023-02-21T22:25:57.146Z,22.20
2023-02-21T22:28:23.588Z,27.83
2023-02-21T22:30:50.326Z,24.93
2023-02-21T22:33:19.757Z,23.90
2023-02-21T22:35:47.156Z,23.17
2023-02-21T22:38:17.353Z,22.30
2023-02-21T22:40:43.909Z,21.37
2023-02-21T22:43:10.666Z,25.77
2023-02-21T22:45:37.872Z,24.40
2023-02-21T22:48:05.735Z,22.17
2023-02-21T22:50:39.405Z,24.37
2023-02-21T22:53:13.245Z,21.90
2023-02-21T22:55:39.624Z,20.03
2023-02-21T22:58:07.511Z,19.67
2023-02-21T23:00:34.530Z,18.33
2023-02-21T23:03:02.059Z,22.90
2023-02-21T23:05:28.717Z,18.97
2023-02-21T23:07:58.891Z,21.60
2023-02-21T23:10:26.916Z,19.40
2023-02-21T23:12:55.724Z,20.80
2023-02-21T23:15:22.681Z,21.97
2023-02-21T23:17:49.704Z,22.80
2023-02-21T23:20:18.116Z,21.07
2023-02-21T23:22:45.134Z,20.73
2023-02-21T23:25:20.327Z,18.83
2023-02-21T23:27:47.794Z,23.20
2023-02-21T23:30:16.379Z,20.33
2023-02-21T23:32:44.053Z,19.73
2023-02-21T23:35:10.897Z,24.57
2023-02-21T23:37:42.901Z,21.13
2023-02-21T23:40:16.355Z,20.67
2023-02-21T23:42:44.003Z,26.37
2023-02-21T23:45:11.144Z,21.70
2023-02-21T23:47:38.336Z,21.67
2023-02-21T23:50:07.307Z,24.00
2023-02-21T23:52:33.966Z,23.10
2023-02-21T23:55:00.379Z,19.63
2023-02-21T23:57:26.761Z,25.40
2023-02-21T23:59:53.179Z,21.67
